Portland — WDG2201 — position and weather

sailwx.info

Track history (hours):
 
Tides and Currents Weather Stations Pressure Air Temp Water Temp Dewpoint Dewpoint Depression Visibility Wind Speed Wind Dir Waves Ship Positions

Portland

More information available from US FCC via Universal Licensing System and Coast Guard Vessel Documentation Center.

Last reported at 2014-Jul-31 12:32 UTC. Time now 2014-Jul-31 13:33 UTC.
Position N 45°39' W 122°45'.

Length 27 m; draft 4 m.

Type: Towing. MMSI: 367315814.

Date/timePositionNaut miles runAvg speedWind from/ knotsBaromVisibWave heightAir tempDewpointWater temp
2014-Jul-31 12:32N 45°39' W 122°45'0 0.0
2014-Jul-31 11:33N 45°39' W 122°45'0 0.0
2014-Jul-31 10:34N 45°39' W 122°45'0 0.0
2014-Jul-31 09:33N 45°39' W 122°45'0 0.0
2014-Jul-31 08:33N 45°39' W 122°45'2 2.1
2014-Jul-31 07:33N 45°38' W 122°42'2 1.6
2014-Jul-31 06:30N 45°39' W 122°45'0 0.5
2014-Jul-31 05:31N 45°39' W 122°45'3 2.3
2014-Jul-31 04:09N 45°36' W 122°47'0 0.1
2014-Jul-31 03:33N 45°36' W 122°47'3 2.5
2014-Jul-31 02:29N 45°34' W 122°44'0 0.0
2014-Jul-29 14:09N 45°34' W 122°44'0 0.1
2014-Jul-29 13:27N 45°34' W 122°44'0 0.0
2014-Jul-29 12:03N 45°34' W 122°44'0 0.0
2014-Jul-29 11:15N 45°34' W 122°44'0 0.0
2014-Jul-29 10:33N 45°34' W 122°44'0 0.0
2014-Jul-29 09:27N 45°34' W 122°44'3 3.3
2014-Jul-29 08:33N 45°36' W 122°47'1 1.1
2014-Jul-29 07:33N 45°37' W 122°47'2 2.3
2014-Jul-29 06:33N 45°39' W 122°45'0 0.0
2014-Jul-29 05:25N 45°39' W 122°45'0 0.0
2014-Jul-29 03:16N 45°39' W 122°45'0 0.0
2014-Jul-29 01:19N 45°39' W 122°45'0 0.0
2014-Jul-28 23:16N 45°39' W 122°45'0 0.0
2014-Jul-28 22:16N 45°39' W 122°45'0 0.0
2014-Jul-28 18:07N 45°39' W 122°45'0 0.0
2014-Jul-28 17:19N 45°39' W 122°45'0 0.0
2014-Jul-28 16:25N 45°39' W 122°45'0 0.0
2014-Jul-28 15:26N 45°39' W 122°45'2 2.1
2014-Jul-28 14:27N 45°38' W 122°42'2 2.3
2014-Jul-28 13:31N 45°39' W 122°45'0 0.0
2014-Jul-28 12:25N 45°39' W 122°45'0 0.0
2014-Jul-28 11:28N 45°39' W 122°45'0 0.0
2014-Jul-28 10:28N 45°39' W 122°45'0 0.0
2014-Jul-28 09:28N 45°39' W 122°45'0 0.0
2014-Jul-28 08:10N 45°39' W 122°45'0 0.0
2014-Jul-28 06:07N 45°39' W 122°45'0 0.0
2014-Jul-28 01:25N 45°39' W 122°45'0 0.0
2014-Jul-28 00:22N 45°39' W 122°45'0 0.0
2014-Jul-27 21:25N 45°39' W 122°45'0 0.0
2014-Jul-27 20:27N 45°39' W 122°45'0 0.0
2014-Jul-27 19:29N 45°39' W 122°45'0 0.0
2014-Jul-27 18:31N 45°39' W 122°45'0 0.0
2014-Jul-27 17:32N 45°39' W 122°45'0 0.0
2014-Jul-27 16:33N 45°39' W 122°45'0 0.0
2014-Jul-27 15:34N 45°39' W 122°45'0 0.0
2014-Jul-27 14:33N 45°39' W 122°45'0 0.0
2014-Jul-27 13:33N 45°39' W 122°45'0 0.0
2014-Jul-27 12:33N 45°39' W 122°45'0 0.0
2014-Jul-27 11:32N 45°39' W 122°45'0 0.0
2014-Jul-27 10:33N 45°39' W 122°45'0 0.0
2014-Jul-27 09:29N 45°39' W 122°45'0 0.0
2014-Jul-27 08:33N 45°39' W 122°45'0 0.0
2014-Jul-27 07:33N 45°39' W 122°45'0 0.0
2014-Jul-27 06:32N 45°39' W 122°45'0 0.0
2014-Jul-27 05:33N 45°39' W 122°45'0 0.0
2014-Jul-27 04:34N 45°39' W 122°45'0 0.0
2014-Jul-27 03:32N 45°39' W 122°45'0 0.0
2014-Jul-27 02:33N 45°39' W 122°45'0 0.0
2014-Jul-27 01:34N 45°39' W 122°45'0 0.0
2014-Jul-27 00:33N 45°39' W 122°45'2 1.5
2014-Jul-26 23:33N 45°40' W 122°46'1 1.2
2014-Jul-26 22:32N 45°39' W 122°45'0 0.3
2014-Jul-26 21:33N 45°39' W 122°45'0 0.0
2014-Jul-26 20:33N 45°39' W 122°45'0 0.0
2014-Jul-26 19:33N 45°39' W 122°45'0 0.0
2014-Jul-26 18:32N 45°39' W 122°45'0 0.0
2014-Jul-26 17:31N 45°39' W 122°45'0 0.4
2014-Jul-26 16:34N 45°39' W 122°45'0 0.3
2014-Jul-26 15:25N 45°39' W 122°45'0 0.2
2014-Jul-26 13:29N 45°39' W 122°45'0 0.0
2014-Jul-26 11:20N 45°39' W 122°45'0 0.0
2014-Jul-26 10:32N 45°39' W 122°45'0 0.0
2014-Jul-26 09:32N 45°39' W 122°45'0 0.0
2014-Jul-26 07:20N 45°39' W 122°45'0 0.0
2014-Jul-26 06:26N 45°39' W 122°45'0 0.0
2014-Jul-26 05:20N 45°39' W 122°45'0 0.0
2014-Jul-26 04:08N 45°39' W 122°45'0 0.0
2014-Jul-26 02:14N 45°39' W 122°45'0 0.0
2014-Jul-26 01:08N 45°39' W 122°45'0 0.0
2014-Jul-25 22:26N 45°39' W 122°45'0 0.0
2014-Jul-25 18:14N 45°39' W 122°45'0 0.0
2014-Jul-25 12:26N 45°39' W 122°45'0 0.0
2014-Jul-25 06:26N 45°39' W 122°45'2 0.7
2014-Jul-25 04:16N 45°38' W 122°43'1 1.6
2014-Jul-25 03:33N 45°39' W 122°44'1 0.5
2014-Jul-25 02:32N 45°39' W 122°45'0 0.0
2014-Jul-25 01:32N 45°39' W 122°45'4 4.3
2014-Jul-25 00:32N 45°34' W 122°44'1 0.3
2014-Jul-24 21:28N 45°34' W 122°44'0 0.1
2014-Jul-24 20:32N 45°34' W 122°43'0 0.1
2014-Jul-24 17:16N 45°34' W 122°44'5 7.2
2014-Jul-24 16:30N 45°39' W 122°46'1 0.7
2014-Jul-24 15:30N 45°39' W 122°45'0 0.0
2014-Jul-24 14:30N 45°39' W 122°45'6 0.5
2014-Jul-24 01:33N 45°33' W 122°42'2 0.8
2014-Jul-23 23:28N 45°34' W 122°44'0 0.1
2014-Jul-23 21:28N 45°34' W 122°44'0 0.1
2014-Jul-23 20:19N 45°34' W 122°44'0 0.1
2014-Jul-23 19:20N 45°34' W 122°44'0 0.0
2014-Jul-23 16:16N 45°34' W 122°44'0 0.2
2014-Jul-23 15:33N 45°34' W 122°44'4 4.2
2014-Jul-23 14:33N 45°37' W 122°47'2 2.0
2014-Jul-23 13:27N 45°39' W 122°45'1 1.5
2014-Jul-23 12:33N 45°38' W 122°43'0 0.3
2014-Jul-23 11:33N 45°38' W 122°43'2 0.2
2014-Jul-23 02:25N 45°39' W 122°45'0 0.1
2014-Jul-23 01:22N 45°39' W 122°45'0 0.3
2014-Jul-23 00:32N 45°39' W 122°45'0 0.0
2014-Jul-22 22:13N 45°39' W 122°45'1 1.0
2014-Jul-22 21:04N 45°38' W 122°47'2 1.2
2014-Jul-22 19:15N 45°36' W 122°47'2 0.3
2014-Jul-22 12:31N 45°38' W 122°47'2 0.1
2014-Jul-21 23:28N 45°40' W 122°46'1 0.7
2014-Jul-21 22:30N 45°39' W 122°46'1 0.7
2014-Jul-21 21:29N 45°39' W 122°45'0 0.0
2014-Jul-21 20:21N 45°39' W 122°45'0 0.0
2014-Jul-21 20:12N 45°39' W 122°45'0 0.0
2014-Jul-21 19:12N 45°39' W 122°45'0 0.0
2014-Jul-21 18:32N 45°39' W 122°45'0 0.0
2014-Jul-21 17:29N 45°39' W 122°45'0 0.0
2014-Jul-21 16:31N 45°39' W 122°45'2 2.1
2014-Jul-21 15:33N 45°38' W 122°42'2 1.7
2014-Jul-21 14:30N 45°39' W 122°45'0 0.0
2014-Jul-21 13:24N 45°39' W 122°45'  
Track history (hours):
 
Tides and Currents Weather Stations Pressure Air Temp Water Temp Dewpoint Dewpoint Depression Visibility Wind Speed Wind Dir Waves Ship Positions

Portland

More information available from US FCC via Universal Licensing System and Coast Guard Vessel Documentation Center.

Last reported at 2014-Jul-31 12:32 UTC. Time now 2014-Jul-31 13:33 UTC.
Position N 45°39' W 122°45'.

Length 27 m; draft 4 m.

Type: Towing. MMSI: 367315814.

Date/timePositionNaut miles runAvg speedWind from/ knotsBaromVisibWave heightAir tempDewpointWater temp
2014-Jul-31 12:32N 45°39' W 122°45'0 0.0
2014-Jul-31 11:33N 45°39' W 122°45'0 0.0
2014-Jul-31 10:34N 45°39' W 122°45'0 0.0
2014-Jul-31 09:33N 45°39' W 122°45'0 0.0
2014-Jul-31 08:33N 45°39' W 122°45'2 2.1
2014-Jul-31 07:33N 45°38' W 122°42'2 1.6
2014-Jul-31 06:30N 45°39' W 122°45'0 0.5
2014-Jul-31 05:31N 45°39' W 122°45'3 2.3
2014-Jul-31 04:09N 45°36' W 122°47'0 0.1
2014-Jul-31 03:33N 45°36' W 122°47'3 2.5
2014-Jul-31 02:29N 45°34' W 122°44'0 0.0
2014-Jul-29 14:09N 45°34' W 122°44'0 0.1
2014-Jul-29 13:27N 45°34' W 122°44'0 0.0
2014-Jul-29 12:03N 45°34' W 122°44'0 0.0
2014-Jul-29 11:15N 45°34' W 122°44'0 0.0
2014-Jul-29 10:33N 45°34' W 122°44'0 0.0
2014-Jul-29 09:27N 45°34' W 122°44'3 3.3
2014-Jul-29 08:33N 45°36' W 122°47'1 1.1
2014-Jul-29 07:33N 45°37' W 122°47'2 2.3
2014-Jul-29 06:33N 45°39' W 122°45'0 0.0
2014-Jul-29 05:25N 45°39' W 122°45'0 0.0
2014-Jul-29 03:16N 45°39' W 122°45'0 0.0
2014-Jul-29 01:19N 45°39' W 122°45'0 0.0
2014-Jul-28 23:16N 45°39' W 122°45'0 0.0
2014-Jul-28 22:16N 45°39' W 122°45'0 0.0
2014-Jul-28 18:07N 45°39' W 122°45'0 0.0
2014-Jul-28 17:19N 45°39' W 122°45'0 0.0
2014-Jul-28 16:25N 45°39' W 122°45'0 0.0
2014-Jul-28 15:26N 45°39' W 122°45'2 2.1
2014-Jul-28 14:27N 45°38' W 122°42'2 2.3
2014-Jul-28 13:31N 45°39' W 122°45'0 0.0
2014-Jul-28 12:25N 45°39' W 122°45'0 0.0
2014-Jul-28 11:28N 45°39' W 122°45'0 0.0
2014-Jul-28 10:28N 45°39' W 122°45'0 0.0
2014-Jul-28 09:28N 45°39' W 122°45'0 0.0
2014-Jul-28 08:10N 45°39' W 122°45'0 0.0
2014-Jul-28 06:07N 45°39' W 122°45'0 0.0
2014-Jul-28 01:25N 45°39' W 122°45'0 0.0
2014-Jul-28 00:22N 45°39' W 122°45'0 0.0
2014-Jul-27 21:25N 45°39' W 122°45'0 0.0
2014-Jul-27 20:27N 45°39' W 122°45'0 0.0
2014-Jul-27 19:29N 45°39' W 122°45'0 0.0
2014-Jul-27 18:31N 45°39' W 122°45'0 0.0
2014-Jul-27 17:32N 45°39' W 122°45'0 0.0
2014-Jul-27 16:33N 45°39' W 122°45'0 0.0
2014-Jul-27 15:34N 45°39' W 122°45'0 0.0
2014-Jul-27 14:33N 45°39' W 122°45'0 0.0
2014-Jul-27 13:33N 45°39' W 122°45'0 0.0
2014-Jul-27 12:33N 45°39' W 122°45'0 0.0
2014-Jul-27 11:32N 45°39' W 122°45'0 0.0
2014-Jul-27 10:33N 45°39' W 122°45'0 0.0
2014-Jul-27 09:29N 45°39' W 122°45'0 0.0
2014-Jul-27 08:33N 45°39' W 122°45'0 0.0
2014-Jul-27 07:33N 45°39' W 122°45'0 0.0
2014-Jul-27 06:32N 45°39' W 122°45'0 0.0
2014-Jul-27 05:33N 45°39' W 122°45'0 0.0
2014-Jul-27 04:34N 45°39' W 122°45'0 0.0
2014-Jul-27 03:32N 45°39' W 122°45'0 0.0
2014-Jul-27 02:33N 45°39' W 122°45'0 0.0
2014-Jul-27 01:34N 45°39' W 122°45'0 0.0
2014-Jul-27 00:33N 45°39' W 122°45'2 1.5
2014-Jul-26 23:33N 45°40' W 122°46'1 1.2
2014-Jul-26 22:32N 45°39' W 122°45'0 0.3
2014-Jul-26 21:33N 45°39' W 122°45'0 0.0
2014-Jul-26 20:33N 45°39' W 122°45'0 0.0
2014-Jul-26 19:33N 45°39' W 122°45'0 0.0
2014-Jul-26 18:32N 45°39' W 122°45'0 0.0
2014-Jul-26 17:31N 45°39' W 122°45'0 0.4
2014-Jul-26 16:34N 45°39' W 122°45'0 0.3
2014-Jul-26 15:25N 45°39' W 122°45'0 0.2
2014-Jul-26 13:29N 45°39' W 122°45'0 0.0
2014-Jul-26 11:20N 45°39' W 122°45'0 0.0
2014-Jul-26 10:32N 45°39' W 122°45'0 0.0
2014-Jul-26 09:32N 45°39' W 122°45'0 0.0
2014-Jul-26 07:20N 45°39' W 122°45'0 0.0
2014-Jul-26 06:26N 45°39' W 122°45'0 0.0
2014-Jul-26 05:20N 45°39' W 122°45'0 0.0
2014-Jul-26 04:08N 45°39' W 122°45'0 0.0
2014-Jul-26 02:14N 45°39' W 122°45'0 0.0
2014-Jul-26 01:08N 45°39' W 122°45'0 0.0
2014-Jul-25 22:26N 45°39' W 122°45'0 0.0
2014-Jul-25 18:14N 45°39' W 122°45'0 0.0
2014-Jul-25 12:26N 45°39' W 122°45'0 0.0
2014-Jul-25 06:26N 45°39' W 122°45'2 0.7
2014-Jul-25 04:16N 45°38' W 122°43'1 1.6
2014-Jul-25 03:33N 45°39' W 122°44'1 0.5
2014-Jul-25 02:32N 45°39' W 122°45'0 0.0
2014-Jul-25 01:32N 45°39' W 122°45'4 4.3
2014-Jul-25 00:32N 45°34' W 122°44'1 0.3
2014-Jul-24 21:28N 45°34' W 122°44'0 0.1
2014-Jul-24 20:32N 45°34' W 122°43'0 0.1
2014-Jul-24 17:16N 45°34' W 122°44'5 7.2
2014-Jul-24 16:30N 45°39' W 122°46'1 0.7
2014-Jul-24 15:30N 45°39' W 122°45'0 0.0
2014-Jul-24 14:30N 45°39' W 122°45'6 0.5
2014-Jul-24 01:33N 45°33' W 122°42'2 0.8
2014-Jul-23 23:28N 45°34' W 122°44'0 0.1
2014-Jul-23 21:28N 45°34' W 122°44'0 0.1
2014-Jul-23 20:19N 45°34' W 122°44'0 0.1
2014-Jul-23 19:20N 45°34' W 122°44'0 0.0
2014-Jul-23 16:16N 45°34' W 122°44'0 0.2
2014-Jul-23 15:33N 45°34' W 122°44'4 4.2
2014-Jul-23 14:33N 45°37' W 122°47'2 2.0
2014-Jul-23 13:27N 45°39' W 122°45'1 1.5
2014-Jul-23 12:33N 45°38' W 122°43'0 0.3
2014-Jul-23 11:33N 45°38' W 122°43'2 0.2
2014-Jul-23 02:25N 45°39' W 122°45'0 0.1
2014-Jul-23 01:22N 45°39' W 122°45'0 0.3
2014-Jul-23 00:32N 45°39' W 122°45'0 0.0
2014-Jul-22 22:13N 45°39' W 122°45'1 1.0
2014-Jul-22 21:04N 45°38' W 122°47'2 1.2
2014-Jul-22 19:15N 45°36' W 122°47'2 0.3
2014-Jul-22 12:31N 45°38' W 122°47'2 0.1
2014-Jul-21 23:28N 45°40' W 122°46'1 0.7
2014-Jul-21 22:30N 45°39' W 122°46'1 0.7
2014-Jul-21 21:29N 45°39' W 122°45'0 0.0
2014-Jul-21 20:21N 45°39' W 122°45'0 0.0
2014-Jul-21 20:12N 45°39' W 122°45'0 0.0
2014-Jul-21 19:12N 45°39' W 122°45'0 0.0
2014-Jul-21 18:32N 45°39' W 122°45'0 0.0
2014-Jul-21 17:29N 45°39' W 122°45'0 0.0
2014-Jul-21 16:31N 45°39' W 122°45'2 2.1
2014-Jul-21 15:33N 45°38' W 122°42'2 1.7
2014-Jul-21 14:30N 45°39' W 122°45'0 0.0
2014-Jul-21 13:24N 45°39' W 122°45'  

Dump ship's entire track history